Time;durP1;ratioP1;P1;durP2;ratioP2;P2;SDS_P1;SDS_P2;PMS_P1;PMS_P2;Temp;Humidity;BMP_temperature;BMP_pressure;BME280_temperature;BME280_humidity;BME280_pressure;Samples;Min_cycle;Max_cycle;Signal;HPM_P1;HPM_P2
2021/12/06 00:02:16;;;;;;;9.53;1.37;;;11.50;99.90;;;;;;5094951;28;20055;-73
2021/12/06 00:04:42;;;;;;;7.40;1.20;;;11.50;99.90;;;;;;5095082;28;20027;-73
2021/12/06 00:07:12;;;;;;;5.07;1.40;;;11.60;99.90;;;;;;5094821;28;20032;-74
2021/12/06 00:09:38;;;;;;;5.65;1.25;;;11.60;99.90;;;;;;5094700;28;20058;-73
2021/12/06 00:12:05;;;;;;;6.10;1.08;;;11.50;99.90;;;;;;5094004;28;20074;-73
2021/12/06 00:14:37;;;;;;;9.63;1.38;;;11.50;99.90;;;;;;5094478;28;20525;-74
2021/12/06 00:17:10;;;;;;;6.80;1.33;;;11.50;99.90;;;;;;5093297;28;20024;-74
2021/12/06 00:19:39;;;;;;;5.80;0.98;;;11.40;99.90;;;;;;5094559;28;20028;-75
2021/12/06 00:22:09;;;;;;;5.53;0.93;;;11.40;99.90;;;;;;5094536;28;20043;-73
2021/12/06 00:24:35;;;;;;;10.15;1.30;;;11.40;99.90;;;;;;5094647;28;20020;-73
2021/12/06 00:27:01;;;;;;;8.33;1.20;;;11.30;99.90;;;;;;5094408;28;20028;-74
2021/12/06 00:29:29;;;;;;;12.88;1.80;;;11.30;99.90;;;;;;5094460;28;20035;-74
2021/12/06 00:31:57;;;;;;;8.23;1.20;;;11.20;99.90;;;;;;5094480;28;20044;-74
2021/12/06 00:34:25;;;;;;;12.15;1.15;;;11.30;99.90;;;;;;5094360;28;20024;-74
2021/12/06 00:37:04;;;;;;;10.25;1.50;;;11.30;99.90;;;;;;5093629;28;20159;-74
2021/12/06 00:39:30;;;;;;;13.98;1.52;;;11.30;99.90;;;;;;5092632;28;20027;-73
2021/12/06 00:41:57;;;;;;;9.98;1.58;;;11.30;99.90;;;;;;5093950;28;20430;-74
2021/12/06 00:44:24;;;;;;;10.00;1.30;;;11.40;99.90;;;;;;5094143;28;20069;-75
2021/12/06 00:46:50;;;;;;;6.50;1.15;;;11.40;99.90;;;;;;5093962;28;20039;-72
2021/12/06 00:49:16;;;;;;;11.73;1.52;;;11.40;99.90;;;;;;5093923;28;20036;-73
2021/12/06 00:51:43;;;;;;;7.50;1.10;;;11.40;99.90;;;;;;5093937;28;20020;-73
2021/12/06 00:54:10;;;;;;;9.35;1.33;;;11.40;99.90;;;;;;5093661;28;20115;-74
2021/12/06 00:56:38;;;;;;;6.72;0.93;;;11.40;99.90;;;;;;5093584;28;20114;-74
2021/12/06 00:59:05;;;;;;;8.93;1.38;;;11.40;99.90;;;;;;5093504;28;20510;-73
2021/12/06 01:01:33;;;;;;;9.63;1.35;;;11.40;99.90;;;;;;5092205;28;20028;-73
2021/12/06 01:04:00;;;;;;;8.95;1.52;;;11.40;99.90;;;;;;5092347;28;20431;-72
2021/12/06 01:06:31;;;;;;;6.15;0.93;;;11.40;99.90;;;;;;5093550;28;20107;-73
2021/12/06 01:08:58;;;;;;;7.47;0.90;;;11.40;99.90;;;;;;5093783;28;20039;-73
2021/12/06 01:11:25;;;;;;;8.40;1.05;;;11.30;99.90;;;;;;5093442;28;20051;-73
2021/12/06 01:13:53;;;;;;;5.88;0.85;;;11.30;99.90;;;;;;5093536;28;20460;-73
2021/12/06 01:16:25;;;;;;;11.40;0.80;;;11.40;99.90;;;;;;5091927;28;20059;-73
2021/12/06 01:18:51;;;;;;;5.43;0.70;;;11.40;99.90;;;;;;5093338;28;20028;-73
2021/12/06 01:22:09;;;;;;;5.10;0.68;;;11.40;99.90;;;;;;5093358;28;20051;-73
2021/12/06 01:24:07;;;;;;;6.13;0.95;;;11.40;99.90;;;;;;5087353;28;20360;-73
2021/12/06 01:32:15;;;;;;;4.15;0.80;;;11.50;99.90;;;;;;5093436;28;20495;-73
2021/12/06 01:39:11;;;;;;;9.75;1.13;;;11.50;99.90;;;;;;5093447;28;20483;-73
2021/12/06 01:40:19;;;;;;;5.68;0.77;;;11.30;99.90;;;;;;5093445;28;20039;-73
2021/12/06 01:42:46;;;;;;;4.25;0.98;;;11.20;99.90;;;;;;5093178;28;20523;-73
2021/12/06 01:45:12;;;;;;;2.70;0.93;;;11.20;99.90;;;;;;5092746;28;20032;-73
2021/12/06 01:47:41;;;;;;;6.22;0.80;;;11.10;99.90;;;;;;5092626;28;20027;-73
2021/12/06 01:50:14;;;;;;;5.85;1.05;;;11.10;99.90;;;;;;5093151;28;20028;-73
2021/12/06 01:52:47;;;;;;;5.32;0.70;;;11.10;99.90;;;;;;5092780;28;20076;-73
2021/12/06 01:55:17;;;;;;;3.05;0.50;;;10.80;99.90;;;;;;5092926;28;20023;-73
2021/12/06 01:57:43;;;;;;;5.10;0.60;;;10.50;99.90;;;;;;5091738;28;20024;-73
2021/12/06 02:00:17;;;;;;;5.40;0.80;;;10.20;99.90;;;;;;5092520;28;20032;-73
2021/12/06 02:02:44;;;;;;;6.05;0.65;;;10.10;99.90;;;;;;5092802;28;20052;-73
2021/12/06 02:05:10;;;;;;;2.92;0.60;;;10.00;99.90;;;;;;5092586;28;20027;-72
2021/12/06 02:07:41;;;;;;;6.47;1.27;;;9.90;99.90;;;;;;5092664;28;20027;-73
2021/12/06 02:10:09;;;;;;;5.25;0.57;;;9.80;99.90;;;;;;5092143;28;20020;-73
2021/12/06 02:12:35;;;;;;;5.53;1.23;;;9.70;99.90;;;;;;5092284;28;20092;-73
2021/12/06 02:15:23;;;;;;;6.68;1.85;;;9.70;99.90;;;;;;5092137;28;20027;-72
2021/12/06 02:17:59;;;;;;;2.33;0.50;;;9.60;99.90;;;;;;5092332;28;20111;-73
2021/12/06 02:20:29;;;;;;;1.42;0.40;;;9.70;99.90;;;;;;5092565;28;20024;-73
2021/12/06 02:22:56;;;;;;;4.50;0.65;;;9.70;99.90;;;;;;5091683;28;20096;-72
2021/12/06 02:25:23;;;;;;;1.90;0.60;;;9.80;99.90;;;;;;5091943;28;20142;-72
2021/12/06 02:27:52;;;;;;;2.30;0.40;;;9.80;99.90;;;;;;5090542;28;20357;-73
2021/12/06 02:30:19;;;;;;;1.85;0.63;;;9.90;99.90;;;;;;5091554;28;20036;-74
2021/12/06 02:32:47;;;;;;;1.35;0.30;;;10.00;99.90;;;;;;5092112;28;20031;-73
2021/12/06 02:35:18;;;;;;;1.13;0.30;;;10.10;99.90;;;;;;5090468;28;20081;-73
2021/12/06 02:37:46;;;;;;;1.85;0.70;;;10.20;99.90;;;;;;5092163;28;20545;-73
2021/12/06 02:40:25;;;;;;;2.75;0.63;;;10.30;99.90;;;;;;5092452;28;20024;-73
2021/12/06 02:42:53;;;;;;;2.75;0.30;;;10.30;99.90;;;;;;5092186;28;20035;-73
2021/12/06 02:45:22;;;;;;;1.73;0.40;;;10.40;99.90;;;;;;5091873;28;20111;-73
2021/12/06 02:47:53;;;;;;;1.67;0.40;;;10.40;99.90;;;;;;5091718;28;20024;-73
2021/12/06 02:50:23;;;;;;;2.03;0.32;;;10.50;99.90;;;;;;5092168;28;20024;-73
2021/12/06 02:52:49;;;;;;;0.98;0.30;;;10.60;99.90;;;;;;5090293;28;20028;-73
2021/12/06 02:55:30;;;;;;;3.53;0.40;;;10.60;99.90;;;;;;5090451;28;20059;-73
2021/12/06 02:58:02;;;;;;;3.42;0.40;;;10.60;99.90;;;;;;5090264;28;20029;-73
2021/12/06 03:00:28;;;;;;;3.83;0.55;;;10.60;99.90;;;;;;5090583;28;20169;-74
2021/12/06 03:02:55;;;;;;;6.45;0.90;;;10.70;99.90;;;;;;5092047;28;20021;-73
2021/12/06 03:05:21;;;;;;;4.55;0.52;;;10.70;99.90;;;;;;5091681;28;20032;-73
2021/12/06 03:07:52;;;;;;;3.40;0.60;;;10.60;99.90;;;;;;5091529;28;20468;-73
2021/12/06 03:10:18;;;;;;;4.43;1.00;;;10.70;99.90;;;;;;5091538;28;20262;-73
2021/12/06 03:12:45;;;;;;;4.38;0.75;;;10.70;99.90;;;;;;5090325;28;20024;-73
2021/12/06 03:15:11;;;;;;;5.28;1.13;;;10.70;99.90;;;;;;5091566;28;20032;-72
2021/12/06 03:17:37;;;;;;;2.13;0.50;;;10.70;99.90;;;;;;5090243;28;20020;-73
2021/12/06 03:20:07;;;;;;;4.20;0.60;;;10.70;99.90;;;;;;5091557;28;20028;-74
2021/12/06 03:22:33;;;;;;;6.10;0.70;;;10.70;99.90;;;;;;5091857;28;20024;-73
2021/12/06 03:24:59;;;;;;;7.07;0.70;;;10.70;99.90;;;;;;5091851;28;20024;-72
2021/12/06 03:27:25;;;;;;;5.85;0.60;;;10.70;99.90;;;;;;5090375;28;20024;-73
2021/12/06 03:29:51;;;;;;;4.38;0.60;;;10.80;99.90;;;;;;5091800;28;20039;-73
2021/12/06 03:32:19;;;;;;;5.37;0.70;;;10.80;99.90;;;;;;5091628;28;20058;-73
2021/12/06 03:34:45;;;;;;;2.88;0.70;;;10.70;99.90;;;;;;5091489;28;20625;-73
2021/12/06 03:37:11;;;;;;;2.67;0.70;;;10.70;99.90;;;;;;5094892;28;20124;-73
2021/12/06 03:39:42;;;;;;;3.30;0.60;;;10.80;99.90;;;;;;5095581;28;20024;-73
2021/12/06 03:42:11;;;;;;;3.20;0.68;;;10.80;99.90;;;;;;5095441;28;20028;-73
2021/12/06 03:44:38;;;;;;;6.63;1.00;;;10.80;99.90;;;;;;5092913;28;20031;-73
2021/12/06 03:47:09;;;;;;;4.47;0.95;;;10.80;99.90;;;;;;5094495;28;20534;-73
2021/12/06 03:49:37;;;;;;;4.43;0.80;;;10.70;99.90;;;;;;5094870;28;20078;-72
2021/12/06 03:52:06;;;;;;;7.22;1.00;;;10.70;99.90;;;;;;5094483;28;20107;-72
2021/12/06 03:54:32;;;;;;;4.68;0.90;;;10.60;99.90;;;;;;5094114;28;20020;-74
2021/12/06 03:57:00;;;;;;;8.52;1.35;;;10.70;99.90;;;;;;5094644;28;20417;-73
2021/12/06 03:59:26;;;;;;;5.82;0.90;;;10.60;99.90;;;;;;5094747;28;20093;-73
2021/12/06 04:01:53;;;;;;;4.03;0.88;;;10.60;99.90;;;;;;5092960;28;20082;-72
2021/12/06 04:04:19;;;;;;;5.05;1.20;;;10.50;99.90;;;;;;5094648;28;20348;-73
2021/12/06 04:06:46;;;;;;;8.70;1.02;;;10.50;99.90;;;;;;5094937;28;20113;-74
2021/12/06 04:09:12;;;;;;;;;;;10.50;99.90;;;;;;5095046;28;20157;-75
2021/12/06 04:11:39;;;;;;;5.20;1.00;;;10.40;99.90;;;;;;5093400;28;20360;-74
2021/12/06 04:14:07;;;;;;;7.22;1.35;;;10.50;99.90;;;;;;5094475;28;20484;-76
2021/12/06 04:16:34;;;;;;;9.18;1.17;;;10.50;99.90;;;;;;5093223;28;20175;-74
2021/12/06 04:19:01;;;;;;;7.30;1.15;;;10.50;99.90;;;;;;5094734;28;20061;-75
2021/12/06 04:21:27;;;;;;;5.22;0.80;;;10.40;99.90;;;;;;5094603;28;20035;-75
2021/12/06 04:23:54;;;;;;;10.30;1.00;;;10.40;99.90;;;;;;5095296;28;20099;-75
2021/12/06 04:26:21;;;;;;;;;;;10.40;99.90;;;;;;5094597;28;20499;-75
2021/12/06 04:28:57;;;;;;;4.03;0.70;;;10.40;99.90;;;;;;5095137;28;20081;-75
2021/12/06 04:31:24;;;;;;;8.40;0.85;;;10.40;99.90;;;;;;5094983;28;20388;-74
2021/12/06 04:33:51;;;;;;;7.15;1.10;;;10.30;99.90;;;;;;5095522;28;20020;-75
2021/12/06 04:36:19;;;;;;;6.82;1.10;;;10.30;99.90;;;;;;5094729;28;20071;-74
2021/12/06 04:38:45;;;;;;;7.65;1.17;;;10.20;99.90;;;;;;5094772;28;20086;-75
2021/12/06 04:41:11;;;;;;;3.92;0.70;;;10.30;99.90;;;;;;5094925;28;20024;-75
2021/12/06 04:43:37;;;;;;;8.37;0.97;;;10.30;99.90;;;;;;5094589;28;20039;-74
2021/12/06 04:46:03;;;;;;;3.30;0.70;;;10.40;99.90;;;;;;5094452;28;20258;-75
2021/12/06 04:48:29;;;;;;;6.73;0.70;;;10.40;99.90;;;;;;5094523;28;20036;-75
2021/12/06 04:50:55;;;;;;;6.70;1.00;;;10.50;99.90;;;;;;5094512;28;20032;-74
2021/12/06 04:53:26;;;;;;;7.23;0.93;;;10.50;99.90;;;;;;5094366;28;20023;-73
2021/12/06 04:56:08;;;;;;;3.78;0.75;;;10.60;99.90;;;;;;5094154;28;20072;-73
2021/12/06 04:58:48;;;;;;;7.13;1.02;;;10.50;99.90;;;;;;5094863;28;20082;-73
2021/12/06 05:01:20;;;;;;;7.88;0.82;;;10.40;99.90;;;;;;5094488;28;20026;-74
2021/12/06 05:03:46;;;;;;;5.38;0.80;;;10.40;99.90;;;;;;5093399;28;20069;-74
2021/12/06 05:06:18;;;;;;;5.43;0.63;;;10.30;99.90;;;;;;5093975;28;20028;-74
2021/12/06 05:08:52;;;;;;;6.95;1.27;;;10.30;99.90;;;;;;5094121;28;20472;-74
2021/12/06 05:11:20;;;;;;;4.43;0.80;;;10.30;99.90;;;;;;5093677;28;20052;-74
2021/12/06 05:13:48;;;;;;;4.70;0.60;;;10.30;99.90;;;;;;5094093;28;20035;-74
2021/12/06 05:16:14;;;;;;;8.15;0.90;;;10.30;99.90;;;;;;5094051;28;20115;-74
2021/12/06 05:18:42;;;;;;;6.32;0.90;;;10.30;99.90;;;;;;5094459;28;20031;-74
2021/12/06 05:21:11;;;;;;;3.40;0.70;;;10.40;99.90;;;;;;5094362;28;20039;-74
2021/12/06 05:23:38;;;;;;;6.40;1.00;;;10.50;99.90;;;;;;5094419;28;20114;-74
2021/12/06 05:26:04;;;;;;;5.00;0.80;;;10.70;99.90;;;;;;5094263;28;20020;-75
2021/12/06 05:28:37;;;;;;;8.20;0.93;;;10.90;99.90;;;;;;5092795;28;20047;-73
2021/12/06 05:31:08;;;;;;;8.50;1.10;;;11.00;99.90;;;;;;5094121;28;20024;-74
2021/12/06 05:33:34;;;;;;;5.80;0.70;;;10.80;99.90;;;;;;5094082;28;20036;-74
2021/12/06 05:36:03;;;;;;;5.82;1.00;;;10.70;99.90;;;;;;5093885;28;20040;-74
2021/12/06 05:38:30;;;;;;;5.40;0.90;;;10.80;99.90;;;;;;5094063;28;20024;-75
2021/12/06 05:40:57;;;;;;;7.50;1.10;;;10.70;99.90;;;;;;5092722;28;20024;-74
2021/12/06 05:43:24;;;;;;;8.05;0.75;;;10.70;99.90;;;;;;5094124;28;20569;-74
2021/12/06 05:45:52;;;;;;;5.28;0.60;;;10.70;99.90;;;;;;5093939;28;20081;-74
2021/12/06 05:48:18;;;;;;;4.25;0.80;;;10.70;99.90;;;;;;5094141;28;20115;-74
2021/12/06 05:50:46;;;;;;;5.55;0.90;;;10.70;99.90;;;;;;5092862;28;20426;-73
2021/12/06 05:53:14;;;;;;;5.85;1.15;;;10.80;99.90;;;;;;5093693;28;20479;-74
2021/12/06 05:55:43;;;;;;;6.47;0.80;;;10.80;99.90;;;;;;5093585;28;20032;-75
2021/12/06 05:58:12;;;;;;;9.13;1.90;;;10.80;99.90;;;;;;5091519;28;20028;-74
2021/12/06 06:00:38;;;;;;;8.25;1.00;;;10.90;99.90;;;;;;5093699;28;20042;-73
2021/12/06 06:03:06;;;;;;;6.57;0.85;;;10.90;99.90;;;;;;5093615;28;20081;-74
2021/12/06 06:05:34;;;;;;;6.43;1.05;;;10.90;99.90;;;;;;5094388;28;20067;-73
2021/12/06 06:08:00;;;;;;;4.95;0.88;;;11.00;99.90;;;;;;5093810;28;20050;-74
2021/12/06 06:10:28;;;;;;;3.63;0.70;;;10.90;99.90;;;;;;5092117;28;20169;-73
2021/12/06 06:12:54;;;;;;;4.03;1.02;;;10.50;99.90;;;;;;5093472;28;20165;-73
2021/12/06 06:15:20;;;;;;;4.45;0.90;;;10.40;99.90;;;;;;5075241;28;20081;-73
2021/12/06 06:17:47;;;;;;;2.60;0.73;;;10.30;99.90;;;;;;5093541;28;20032;-73
2021/12/06 06:20:21;;;;;;;2.72;0.70;;;10.20;99.90;;;;;;5093658;28;20020;-73
2021/12/06 06:22:47;;;;;;;4.65;0.80;;;10.00;99.90;;;;;;5093067;28;20036;-73
2021/12/06 06:25:15;;;;;;;4.33;0.63;;;9.90;99.90;;;;;;5093802;28;20016;-74
2021/12/06 06:27:43;;;;;;;7.10;0.90;;;9.80;99.90;;;;;;5091716;28;20119;-74
2021/12/06 06:30:13;;;;;;;7.35;1.23;;;9.80;99.90;;;;;;5091371;28;20043;-74
2021/12/06 06:32:39;;;;;;;4.68;1.10;;;9.80;99.90;;;;;;5093039;28;20044;-74
2021/12/06 06:35:07;;;;;;;4.10;0.98;;;9.90;99.90;;;;;;5091544;28;20395;-74
2021/12/06 06:37:33;;;;;;;7.78;1.63;;;10.00;99.90;;;;;;5092690;28;20133;-74
2021/12/06 06:40:01;;;;;;;5.85;1.00;;;10.00;99.90;;;;;;5093213;28;20434;-74
2021/12/06 06:42:29;;;;;;;6.68;1.15;;;10.00;99.90;;;;;;5092468;28;20035;-74
2021/12/06 06:44:56;;;;;;;6.00;0.98;;;10.00;99.90;;;;;;5074851;28;20458;-74
2021/12/06 06:47:23;;;;;;;12.77;1.42;;;10.10;99.90;;;;;;5092693;28;20024;-73
2021/12/06 06:49:49;;;;;;;4.07;0.77;;;10.10;99.90;;;;;;5091938;28;20055;-75
2021/12/06 06:52:16;;;;;;;5.18;1.20;;;10.10;99.90;;;;;;5090273;28;20024;-74
2021/12/06 06:54:43;;;;;;;6.85;1.10;;;10.10;99.90;;;;;;5091867;28;20328;-73
2021/12/06 06:57:09;;;;;;;2.20;0.85;;;10.00;99.90;;;;;;5090101;28;20023;-75
2021/12/06 06:59:36;;;;;;;4.30;0.90;;;9.90;99.90;;;;;;5091585;28;20028;-73
2021/12/06 07:02:04;;;;;;;3.20;1.00;;;9.80;99.90;;;;;;5091272;28;20154;-73
2021/12/06 07:04:31;;;;;;;3.30;1.30;;;9.70;99.90;;;;;;5091436;28;20036;-73
2021/12/06 07:06:57;;;;;;;3.72;0.75;;;9.70;99.90;;;;;;5091535;28;20100;-75
2021/12/06 07:09:26;;;;;;;3.23;0.90;;;9.70;99.90;;;;;;5092622;28;20047;-74
2021/12/06 07:11:53;;;;;;;5.35;1.17;;;9.70;99.90;;;;;;5095000;28;20119;-74
2021/12/06 07:14:20;;;;;;;7.80;1.25;;;9.80;99.90;;;;;;5095820;28;20020;-76
2021/12/06 07:16:48;;;;;;;6.47;0.90;;;9.90;99.90;;;;;;5094425;28;20041;-75
2021/12/06 07:19:15;;;;;;;6.03;0.77;;;10.00;99.90;;;;;;5096106;28;20032;-75
2021/12/06 07:21:41;;;;;;;6.38;1.25;;;10.00;99.90;;;;;;5094759;28;20028;-74
2021/12/06 07:24:08;;;;;;;9.60;1.02;;;10.10;99.90;;;;;;5096020;28;20039;-77
2021/12/06 07:26:34;;;;;;;5.93;1.27;;;10.20;99.90;;;;;;5095622;28;20472;-73
2021/12/06 07:29:01;;;;;;;3.33;1.00;;;10.20;99.90;;;;;;5095244;28;20397;-75
2021/12/06 07:31:28;;;;;;;2.38;0.90;;;10.20;99.90;;;;;;5096046;28;20368;-74
2021/12/06 07:33:54;;;;;;;5.40;1.25;;;10.20;99.90;;;;;;5095739;28;20356;-75
2021/12/06 07:36:23;;;;;;;4.45;1.70;;;10.20;99.90;;;;;;5094111;28;20044;-75
2021/12/06 07:38:51;;;;;;;5.40;1.45;;;10.30;99.90;;;;;;5095667;28;20024;-72
2021/12/06 07:41:19;;;;;;;5.22;1.40;;;10.40;99.90;;;;;;5095590;28;20069;-75
2021/12/06 07:43:46;;;;;;;5.45;1.70;;;10.40;99.90;;;;;;5095438;28;20477;-74
2021/12/06 07:46:12;;;;;;;5.05;1.70;;;10.50;99.90;;;;;;5095948;28;20020;-74
2021/12/06 07:48:39;;;;;;;5.28;1.73;;;10.60;99.90;;;;;;5095952;28;20039;-74
2021/12/06 07:51:06;;;;;;;;;;;10.60;99.90;;;;;;5096196;28;20016;-73
2021/12/06 07:53:37;;;;;;;5.28;1.52;;;10.60;99.90;;;;;;5095589;28;19964;-73
2021/12/06 07:56:04;;;;;;;5.15;1.50;;;10.60;99.90;;;;;;5095306;28;20028;-72
2021/12/06 07:58:32;;;;;;;3.28;1.45;;;10.70;99.90;;;;;;5095131;28;20020;-72
2021/12/06 08:00:59;;;;;;;6.88;1.38;;;10.70;99.90;;;;;;5095079;28;20032;-73
2021/12/06 08:03:26;;;;;;;3.88;1.00;;;10.60;99.90;;;;;;5095180;28;20027;-73
2021/12/06 08:05:54;;;;;;;3.55;1.10;;;10.30;99.90;;;;;;5094990;28;20023;-73
2021/12/06 08:08:27;;;;;;;4.10;0.85;;;10.40;99.90;;;;;;5093930;28;20028;-74
2021/12/06 08:11:05;;;;;;;4.43;0.95;;;10.40;99.90;;;;;;5093581;28;20032;-72
2021/12/06 08:13:33;;;;;;;2.92;0.77;;;10.50;99.90;;;;;;5095326;28;20139;-72
2021/12/06 08:16:04;;;;;;;4.82;1.10;;;10.70;99.90;;;;;;5093435;28;20131;-72
2021/12/06 08:18:31;;;;;;;7.10;1.20;;;10.90;99.90;;;;;;5095283;28;20456;-73
2021/12/06 08:20:59;;;;;;;7.45;1.30;;;10.90;99.90;;;;;;5092283;28;20559;-72
2021/12/06 08:23:25;;;;;;;6.25;1.10;;;11.00;99.90;;;;;;5095345;28;20028;-72
2021/12/06 08:25:52;;;;;;;5.97;1.00;;;11.20;99.90;;;;;;5094622;28;20039;-71
2021/12/06 08:28:20;;;;;;;6.32;1.00;;;11.20;99.90;;;;;;5093804;28;20477;-72
2021/12/06 08:30:47;;;;;;;7.13;1.20;;;11.30;99.90;;;;;;5095192;28;20020;-71
2021/12/06 08:33:13;;;;;;;6.65;1.45;;;11.30;99.90;;;;;;5094985;28;20372;-71
2021/12/06 08:35:48;;;;;;;6.65;1.25;;;11.30;99.90;;;;;;5094642;28;20028;-72
2021/12/06 08:38:16;;;;;;;5.13;1.20;;;11.30;99.90;;;;;;5094914;28;20354;-72
2021/12/06 08:40:46;;;;;;;7.40;1.35;;;11.30;99.90;;;;;;5094612;28;20048;-72
2021/12/06 08:43:16;;;;;;;8.20;1.25;;;11.30;99.90;;;;;;5094496;28;20073;-72
2021/12/06 08:46:05;;;;;;;6.50;1.02;;;11.30;99.90;;;;;;5094928;28;20050;-69
2021/12/06 08:48:34;;;;;;;8.20;1.40;;;11.20;99.90;;;;;;5094051;28;20089;-71
2021/12/06 08:51:03;;;;;;;7.13;1.23;;;11.30;99.90;;;;;;5093937;28;20020;-70
2021/12/06 08:53:30;;;;;;;13.95;1.30;;;11.30;99.90;;;;;;5092517;28;20028;-72
2021/12/06 08:55:57;;;;;;;10.20;1.70;;;11.20;99.90;;;;;;5091962;28;20122;-71
2021/12/06 08:58:23;;;;;;;9.10;1.80;;;11.20;99.90;;;;;;5093435;28;20035;-70
2021/12/06 09:00:49;;;;;;;11.35;1.48;;;11.10;99.90;;;;;;5092868;28;20032;-71
2021/12/06 09:03:16;;;;;;;8.05;1.42;;;11.10;99.90;;;;;;5093009;28;20114;-70
2021/12/06 09:05:47;;;;;;;6.13;1.20;;;11.10;99.90;;;;;;5093310;28;20093;-81
2021/12/06 09:08:14;;;;;;;5.78;1.02;;;11.10;99.90;;;;;;5093352;28;20481;-71
2021/12/06 09:10:40;;;;;;;9.85;1.48;;;11.10;99.90;;;;;;5091912;28;20098;-71
2021/12/06 09:13:07;;;;;;;11.90;1.85;;;11.10;99.90;;;;;;5093120;28;20461;-71
2021/12/06 09:15:33;;;;;;;;;;;11.10;99.90;;;;;;5093353;28;20055;-71
2021/12/06 09:18:01;;;;;;;6.50;1.85;;;11.20;99.90;;;;;;5093898;28;19943;-71
2021/12/06 09:20:34;;;;;;;10.02;2.40;;;11.20;99.90;;;;;;5093497;28;20032;-69
2021/12/06 09:23:01;;;;;;;7.07;1.30;;;11.30;99.90;;;;;;5093964;28;20077;-71
2021/12/06 09:25:29;;;;;;;8.52;1.13;;;11.40;99.90;;;;;;5093480;28;20441;-71
2021/12/06 09:27:55;;;;;;;6.88;1.40;;;11.40;99.90;;;;;;5094064;28;20024;-70
2021/12/06 09:30:26;;;;;;;12.85;1.88;;;11.30;99.90;;;;;;5093463;28;20032;-71
2021/12/06 09:32:54;;;;;;;5.85;1.60;;;11.30;99.90;;;;;;5091946;28;20532;-70
2021/12/06 09:35:25;;;;;;;9.27;1.75;;;11.30;99.90;;;;;;5093770;28;20109;-71
2021/12/06 09:37:56;;;;;;;8.27;1.65;;;11.40;99.90;;;;;;5093163;28;20052;-72
2021/12/06 09:40:24;;;;;;;7.70;1.90;;;11.40;99.90;;;;;;5094089;28;20145;-69
2021/12/06 09:42:51;;;;;;;9.43;1.80;;;11.50;99.90;;;;;;5093269;28;20520;-71
2021/12/06 09:45:22;;;;;;;7.10;1.40;;;11.60;99.90;;;;;;5092236;28;20333;-71
2021/12/06 09:47:51;;;;;;;13.10;1.80;;;11.60;99.90;;;;;;5093428;28;20041;-71
2021/12/06 09:50:27;;;;;;;8.48;2.13;;;11.70;99.90;;;;;;5092027;28;20466;-71
2021/12/06 09:52:56;;;;;;;7.50;2.08;;;11.80;99.90;;;;;;5091325;28;20392;-70
2021/12/06 09:55:23;;;;;;;8.68;1.63;;;11.80;99.90;;;;;;5092619;28;20047;-70
2021/12/06 09:57:49;;;;;;;14.35;2.35;;;11.90;99.90;;;;;;5092770;28;20030;-71
2021/12/06 10:00:19;;;;;;;7.23;2.10;;;12.00;99.90;;;;;;5093000;28;20116;-70
2021/12/06 10:02:46;;;;;;;9.35;2.13;;;12.10;99.90;;;;;;5092823;28;20299;-71
2021/12/06 10:05:13;;;;;;;6.82;1.60;;;12.10;99.90;;;;;;5090984;28;20127;-71
2021/12/06 10:07:42;;;;;;;7.65;1.55;;;12.00;99.90;;;;;;5092410;28;20099;-72
2021/12/06 10:10:12;;;;;;;10.57;2.13;;;12.00;99.90;;;;;;5074550;28;20044;-71
2021/12/06 10:12:38;;;;;;;9.82;1.90;;;12.00;99.90;;;;;;5091152;28;20020;-73
2021/12/06 10:15:05;;;;;;;6.07;1.70;;;12.20;99.90;;;;;;5090601;28;20028;-73
2021/12/06 10:17:32;;;;;;;9.50;2.40;;;12.30;99.90;;;;;;5092292;28;20031;-71
2021/12/06 10:19:59;;;;;;;8.32;1.90;;;12.20;99.90;;;;;;5092392;28;20028;-71
2021/12/06 10:22:27;;;;;;;7.72;1.75;;;12.30;99.90;;;;;;5092211;28;20107;-70
2021/12/06 10:24:57;;;;;;;9.80;1.80;;;12.40;99.90;;;;;;5090708;28;20032;-71
2021/12/06 10:27:24;;;;;;;12.80;1.73;;;12.50;99.90;;;;;;5092556;28;20456;-70
2021/12/06 10:29:54;;;;;;;6.32;1.70;;;12.60;99.90;;;;;;5092641;28;20036;-70
2021/12/06 10:32:24;;;;;;;11.40;2.35;;;12.70;99.90;;;;;;5091731;28;20411;-72
2021/12/06 10:35:09;;;;;;;9.30;2.05;;;12.60;99.90;;;;;;5091960;28;20157;-72
2021/12/06 10:38:01;;;;;;;10.73;1.85;;;12.60;99.90;;;;;;5090209;28;20074;-71
2021/12/06 10:40:38;;;;;;;8.27;2.08;;;12.70;99.90;;;;;;5089964;28;20043;-70
2021/12/06 10:43:08;;;;;;;12.02;2.20;;;12.90;99.90;;;;;;5091864;28;20128;-70
2021/12/06 10:45:38;;;;;;;8.55;1.65;;;13.00;99.90;;;;;;5091656;28;20016;-70
2021/12/06 10:48:28;;;;;;;9.95;2.00;;;13.30;99.90;;;;;;5091993;28;20039;-73
2021/12/06 10:50:54;;;;;;;14.13;4.95;;;13.50;99.90;;;;;;5091668;28;20024;-70
2021/12/06 10:53:24;;;;;;;12.63;2.27;;;13.50;99.90;;;;;;5092352;28;20160;-73
2021/12/06 10:55:53;;;;;;;11.18;1.80;;;13.60;99.90;;;;;;5091997;28;20154;-72
2021/12/06 10:58:26;;;;;;;17.92;2.53;;;13.60;99.90;;;;;;5090484;28;20035;-72
2021/12/06 11:01:13;;;;;;;16.73;2.83;;;13.60;99.90;;;;;;5091933;28;20077;-71
2021/12/06 11:03:42;;;;;;;;;;;13.60;99.90;;;;;;5092367;28;20054;-73
2021/12/06 11:06:26;;;;;;;11.30;2.42;;;13.70;99.90;;;;;;5091516;28;19908;-71
2021/12/06 11:08:59;;;;;;;11.35;2.35;;;14.00;99.90;;;;;;5091731;28;20024;-72
2021/12/06 11:11:50;;;;;;;9.02;2.35;;;14.40;99.90;;;;;;5092025;28;20465;-71
2021/12/06 11:14:29;;;;;;;12.55;2.42;;;14.40;99.90;;;;;;5073948;28;20034;-72
2021/12/06 11:17:00;;;;;;;10.77;2.92;;;14.50;99.90;;;;;;5089863;28;20460;-71
2021/12/06 11:19:29;;;;;;;8.23;1.88;;;14.50;99.90;;;;;;5089742;28;20027;-72
2021/12/06 11:21:58;;;;;;;9.30;1.90;;;14.70;99.90;;;;;;5090236;28;20024;-69
2021/12/06 11:24:29;;;;;;;14.23;2.08;;;14.80;99.90;;;;;;5091603;28;20053;-71
2021/12/06 11:27:10;;;;;;;10.25;2.67;;;14.60;99.90;;;;;;5091856;28;20031;-73
2021/12/06 11:29:43;;;;;;;12.02;1.90;;;14.40;99.90;;;;;;5090203;28;20032;-69
2021/12/06 11:32:14;;;;;;;16.50;2.78;;;14.60;99.90;;;;;;5091356;28;20101;-72
2021/12/06 11:34:51;;;;;;;9.93;2.03;;;14.80;99.90;;;;;;5091269;28;20028;-72
2021/12/06 11:37:23;;;;;;;11.15;2.00;;;14.50;99.90;;;;;;5091237;28;20055;-72
2021/12/06 11:40:03;;;;;;;16.33;1.95;;;14.80;99.90;;;;;;5091557;28;20154;-72
2021/12/06 11:42:30;;;;;;;10.85;2.15;;;14.80;99.90;;;;;;5092114;28;20107;-72
2021/12/06 11:44:59;;;;;;;17.13;2.35;;;14.90;99.90;;;;;;5090230;28;20166;-72
2021/12/06 11:47:25;;;;;;;8.88;1.85;;;14.60;99.90;;;;;;5090757;28;20043;-73
2021/12/06 11:49:55;;;;;;;19.88;2.25;;;14.70;99.90;;;;;;5090987;28;20422;-72
2021/12/06 11:52:27;;;;;;;15.02;2.13;;;14.60;99.90;;;;;;5091315;28;20111;-72
2021/12/06 11:55:00;;;;;;;17.40;2.75;;;14.70;99.90;;;;;;5089965;28;20032;-70
2021/12/06 11:57:40;;;;;;;12.45;2.35;;;14.60;99.90;;;;;;5093808;28;20020;-72
2021/12/06 12:00:20;;;;;;;17.33;3.05;;;14.40;99.90;;;;;;5094542;28;20032;-72
2021/12/06 12:02:50;;;;;;;18.58;2.58;;;14.60;99.90;;;;;;5093660;28;20028;-73
2021/12/06 12:05:38;;;;;;;17.48;2.67;;;14.30;99.90;;;;;;5092059;28;20110;-70
2021/12/06 12:08:11;;;;;;;14.07;2.38;;;14.20;99.90;;;;;;5094515;28;20031;-70
2021/12/06 12:10:53;;;;;;;16.65;2.63;;;14.30;99.90;;;;;;5092851;28;20438;-71
2021/12/06 12:13:26;;;;;;;17.00;2.90;;;14.20;99.90;;;;;;5094694;28;20107;-71
2021/12/06 12:15:58;;;;;;;10.43;2.70;;;14.00;99.90;;;;;;5093528;28;20086;-72
2021/12/06 12:18:25;;;;;;;11.70;2.95;;;13.90;99.90;;;;;;5092075;28;20039;-71
2021/12/06 12:20:53;;;;;;;20.02;2.75;;;13.90;99.90;;;;;;5093333;28;20016;-71
2021/12/06 12:23:20;;;;;;;14.43;2.20;;;13.90;99.90;;;;;;5094309;28;20106;-71
2021/12/06 12:26:01;;;;;;;;;;;13.80;99.90;;;;;;5094917;28;20024;-71
2021/12/06 12:28:36;;;;;;;13.57;2.20;;;13.70;99.90;;;;;;5094499;28;20003;-71
2021/12/06 12:31:05;;;;;;;9.95;1.52;;;13.60;99.90;;;;;;5094501;28;20040;-71
2021/12/06 12:33:31;;;;;;;12.80;2.05;;;13.60;99.90;;;;;;5094112;28;20107;-71
2021/12/06 12:36:06;;;;;;;16.35;2.00;;;13.60;99.90;;;;;;5094106;28;20067;-72
2021/12/06 12:38:35;;;;;;;10.93;1.98;;;13.60;99.90;;;;;;5094519;28;20032;-73
2021/12/06 12:41:05;;;;;;;16.40;2.83;;;13.60;99.90;;;;;;5094715;28;20069;-72
2021/12/06 12:43:45;;;;;;;8.77;2.22;;;13.50;99.90;;;;;;5093989;28;20035;-72
2021/12/06 12:46:24;;;;;;;9.70;1.85;;;13.40;99.90;;;;;;5094752;28;20024;-71
2021/12/06 12:48:54;;;;;;;11.10;2.25;;;13.30;99.90;;;;;;5094607;28;20040;-73
2021/12/06 12:51:31;;;;;;;16.10;2.78;;;13.20;99.90;;;;;;5094543;28;20035;-72
2021/12/06 12:54:10;;;;;;;15.95;2.08;;;13.20;99.90;;;;;;5094786;28;20020;-72
2021/12/06 12:56:48;;;;;;;9.55;1.60;;;13.00;99.90;;;;;;5094968;28;20019;-71
2021/12/06 12:59:19;;;;;;;14.68;2.25;;;12.30;99.90;;;;;;5094466;28;20055;-70
2021/12/06 13:02:16;;;;;;;10.80;1.73;;;12.40;99.90;;;;;;5093978;28;20028;-72
2021/12/06 13:04:57;;;;;;;14.98;2.88;;;12.40;99.90;;;;;;5094465;28;20047;-71
2021/12/06 13:07:31;;;;;;;19.83;3.58;;;12.50;99.90;;;;;;5092107;28;20085;-71
2021/12/06 13:10:18;;;;;;;21.92;3.25;;;12.50;99.90;;;;;;5094634;28;20039;-72